Time;durP1;ratioP1;P1;durP2;ratioP2;P2;SDS_P1;SDS_P2;PMS_P1;PMS_P2;Temp;Humidity;BMP_temperature;BMP_pressure;BME280_temperature;BME280_humidity;BME280_pressure;Samples;Min_cycle;Max_cycle;Signal;HPM_P1;HPM_P2
2021/12/16 00:08:30;;;;;;;117.90;45.60;;;;;;;8.42;100.00;103089.41;4972639;28;20098;-77
2021/12/16 00:11:17;;;;;;;124.60;44.92;;;;;;;8.46;100.00;103102.94;4954791;28;20040;-77
2021/12/16 00:30:24;;;;;;;127.25;48.33;;;;;;;8.43;100.00;103108.50;4959108;28;20063;-78
2021/12/16 00:35:35;;;;;;;120.55;45.38;;;;;;;8.44;100.00;103098.47;4960608;28;20051;-78
2021/12/16 00:38:00;;;;;;;131.88;46.47;;;;;;;8.48;100.00;103108.34;4941750;28;20058;-78
2021/12/16 00:40:26;;;;;;;121.70;45.75;;;;;;;8.42;100.00;103101.22;4960720;28;20181;-78
2021/12/16 00:42:57;;;;;;;119.85;45.88;;;;;;;8.41;100.00;103098.53;4958414;28;20046;-78
2021/12/16 00:48:22;;;;;;;120.68;46.60;;;;;;;8.46;100.00;103105.69;4961749;28;20118;-78
2021/12/16 00:56:06;;;;;;;115.82;44.78;;;;;;;8.42;100.00;103108.53;4958255;28;20043;-78
2021/12/16 00:58:41;;;;;;;122.82;46.53;;;;;;;8.41;100.00;103110.38;4955764;28;20031;-78
2021/12/16 01:01:21;;;;;;;124.60;47.97;;;;;;;8.42;100.00;103117.59;4955579;28;20031;-78
2021/12/16 01:06:38;;;;;;;121.05;47.35;;;;;;;8.40;100.00;103115.88;4960071;28;20463;-78
2021/12/16 01:09:50;;;;;;;121.30;45.95;;;;;;;8.42;100.00;103113.97;4960138;28;20062;-77
2021/12/16 01:34:06;;;;;;;119.32;46.00;;;;;;;8.33;100.00;103125.19;4960241;28;20027;-78
2021/12/16 01:52:34;;;;;;;126.43;46.47;;;;;;;8.29;100.00;103127.13;4954927;28;20039;-78
2021/12/16 01:57:35;;;;;;;123.43;46.63;;;;;;;8.28;100.00;103153.56;4956665;28;20042;-77
2021/12/16 02:00:08;;;;;;;126.05;45.97;;;;;;;8.33;100.00;103144.31;4959218;28;20031;-78
2021/12/16 02:02:42;;;;;;;122.07;47.15;;;;;;;8.33;100.00;103149.75;4975324;28;20042;-78
2021/12/16 02:05:27;;;;;;;120.90;45.35;;;;;;;8.33;100.00;103147.94;4976104;28;20138;-79
2021/12/16 02:10:27;;;;;;;123.43;45.78;;;;;;;8.27;100.00;103140.84;4955764;28;20136;-77
2021/12/16 02:29:22;;;;;;;124.28;48.35;;;;;;;8.31;100.00;103151.66;4962472;28;20062;-77
2021/12/16 02:32:05;;;;;;;122.43;46.67;;;;;;;8.26;100.00;103149.06;4973180;28;20192;-78
2021/12/16 02:34:55;;;;;;;127.95;47.70;;;;;;;8.25;100.00;103150.91;4972777;28;20035;-78
2021/12/16 02:37:19;;;;;;;132.57;46.17;;;;;;;8.29;100.00;103149.84;4971104;28;20471;-77
2021/12/16 02:39:45;;;;;;;134.73;47.70;;;;;;;8.30;100.00;103161.69;4975121;28;20621;-77
2021/12/16 02:42:20;;;;;;;131.23;46.72;;;;;;;8.32;100.00;103176.16;4973832;28;20039;-77
2021/12/16 02:50:23;;;;;;;139.32;48.85;;;;;;;8.28;100.00;103169.94;4958941;28;20032;-77
2021/12/16 02:52:48;;;;;;;122.93;45.95;;;;;;;8.28;100.00;103175.38;4957540;28;20039;-77
2021/12/16 02:55:16;;;;;;;127.65;46.28;;;;;;;8.29;100.00;103177.16;4960869;28;20039;-78
2021/12/16 02:57:59;;;;;;;114.40;46.67;;;;;;;8.32;100.00;103167.09;4961141;28;20031;-77
2021/12/16 03:00:30;;;;;;;119.82;44.92;;;;;;;8.26;100.00;103165.44;4953939;28;20046;-77
2021/12/16 03:02:55;;;;;;;118.57;45.60;;;;;;;8.24;100.00;103160.03;4953832;28;20031;-77
2021/12/16 03:05:21;;;;;;;131.48;47.83;;;;;;;8.23;100.00;103161.00;4954679;28;20053;-77
2021/12/16 03:07:49;;;;;;;129.80;47.10;;;;;;;8.24;100.00;103164.59;4960075;28;20548;-78
2021/12/16 03:13:19;;;;;;;131.63;46.67;;;;;;;8.25;100.00;103161.84;4966737;28;20039;-77
2021/12/16 03:18:33;;;;;;;129.13;45.90;;;;;;;8.26;100.00;103160.91;4954052;28;20045;-77
2021/12/16 03:21:21;;;;;;;113.18;45.50;;;;;;;8.23;100.00;103166.44;4952024;28;20035;-77
2021/12/16 03:24:06;;;;;;;126.40;46.70;;;;;;;8.26;100.00;103176.34;4969450;28;20059;-77
2021/12/16 03:37:14;;;;;;;128.10;47.50;;;;;;;8.20;100.00;103173.81;4954237;28;20486;-77
2021/12/16 03:39:57;;;;;;;133.65;46.05;;;;;;;8.18;100.00;103165.72;4954277;28;20059;-77
2021/12/16 03:42:33;;;;;;;127.13;47.55;;;;;;;8.18;100.00;103162.06;4950345;28;20035;-77
2021/12/16 03:45:07;;;;;;;122.95;48.38;;;;;;;8.10;100.00;103165.94;4954519;28;20043;-77
2021/12/16 03:47:43;;;;;;;124.03;47.42;;;;;;;8.13;100.00;103166.78;4954476;28;20038;-77
2021/12/16 03:50:14;;;;;;;132.70;48.30;;;;;;;8.08;100.00;103165.09;4965532;28;20059;-77
2021/12/16 03:52:40;;;;;;;128.68;46.28;;;;;;;8.07;100.00;103167.88;4951134;28;20502;-77
2021/12/16 03:55:08;;;;;;;131.75;48.15;;;;;;;8.09;100.00;103176.91;4957580;28;20027;-77
2021/12/16 03:57:34;;;;;;;133.30;48.80;;;;;;;8.12;100.00;103164.97;4956772;28;20043;-78
2021/12/16 04:00:01;;;;;;;130.65;49.08;;;;;;;8.12;100.00;103184.06;4941305;28;20035;-78
2021/12/16 04:02:31;;;;;;;135.77;47.03;;;;;;;8.10;100.00;103175.97;4973905;28;20034;-78
2021/12/16 04:04:59;;;;;;;131.70;48.28;;;;;;;8.06;100.00;103175.16;4956365;28;20081;-78
2021/12/16 04:07:30;;;;;;;123.32;47.45;;;;;;;8.06;100.00;103185.19;4955680;28;20075;-77
2021/12/16 04:09:56;;;;;;;136.73;49.85;;;;;;;8.06;100.00;103180.59;4974527;28;20134;-78
2021/12/16 04:12:24;;;;;;;144.48;50.13;;;;;;;8.07;100.00;103186.97;4956196;28;20044;-77
2021/12/16 04:14:53;;;;;;;133.70;48.78;;;;;;;8.08;100.00;103176.03;4970407;28;20106;-78
2021/12/16 04:17:25;;;;;;;129.25;47.08;;;;;;;8.07;100.00;103189.72;4956150;28;20031;-77
2021/12/16 04:19:51;;;;;;;132.05;48.40;;;;;;;8.04;100.00;103189.81;4961589;28;20043;-77
2021/12/16 04:22:27;;;;;;;132.30;48.75;;;;;;;8.02;100.00;103187.13;4954819;28;20031;-78
2021/12/16 04:24:54;;;;;;;129.00;49.38;;;;;;;7.98;100.00;103189.97;4967965;28;20032;-78
2021/12/16 04:27:20;;;;;;;128.90;46.33;;;;;;;7.95;100.00;103185.50;4969224;28;20129;-78
2021/12/16 04:29:47;;;;;;;136.70;50.05;;;;;;;7.93;100.00;103189.22;4955867;28;20031;-78
2021/12/16 04:32:13;;;;;;;147.20;48.63;;;;;;;7.91;100.00;103181.97;4956576;28;20118;-78
2021/12/16 04:34:39;;;;;;;136.85;49.65;;;;;;;7.86;100.00;103178.50;4956345;28;20379;-78
2021/12/16 04:37:05;;;;;;;132.30;49.85;;;;;;;7.79;100.00;103168.72;4956530;28;20039;-78
2021/12/16 04:39:32;;;;;;;138.15;49.03;;;;;;;7.79;100.00;103182.34;4956493;28;20178;-78
2021/12/16 04:41:59;;;;;;;145.32;50.72;;;;;;;7.72;100.00;103181.66;4976822;28;20058;-78
2021/12/16 04:44:26;;;;;;;142.18;49.33;;;;;;;7.66;100.00;103165.47;4961204;28;20038;-77
2021/12/16 04:46:52;;;;;;;138.32;49.65;;;;;;;7.62;100.00;103177.38;4955211;28;20097;-78
2021/12/16 04:49:18;;;;;;;142.70;51.10;;;;;;;7.58;100.00;103169.38;4971389;28;20031;-78
2021/12/16 04:51:49;;;;;;;149.15;51.95;;;;;;;7.53;100.00;103175.81;4956301;28;20162;-78
2021/12/16 04:54:17;;;;;;;165.00;50.85;;;;;;;7.49;100.00;103165.97;4956476;28;20090;-78
2021/12/16 04:56:43;;;;;;;150.18;49.90;;;;;;;7.46;100.00;103178.75;4956553;28;20035;-78
2021/12/16 04:59:12;;;;;;;159.57;49.95;;;;;;;7.42;100.00;103183.41;4971393;28;20074;-78
2021/12/16 05:01:41;;;;;;;148.00;50.53;;;;;;;7.42;100.00;103174.34;4956475;28;20082;-78
2021/12/16 05:04:07;;;;;;;151.07;48.65;;;;;;;7.36;100.00;103175.41;4972959;28;20035;-78
2021/12/16 05:06:34;;;;;;;145.82;51.13;;;;;;;7.35;100.00;103184.53;4958032;28;20027;-78
2021/12/16 05:09:01;;;;;;;137.00;49.55;;;;;;;7.28;100.00;103182.91;4975227;28;20050;-78
2021/12/16 05:11:27;;;;;;;136.95;49.00;;;;;;;7.25;100.00;103180.28;4961524;28;20042;-78
2021/12/16 05:13:53;;;;;;;144.65;49.97;;;;;;;7.20;100.00;103187.66;4962053;28;20041;-78
2021/12/16 05:16:18;;;;;;;147.68;50.85;;;;;;;7.19;100.00;103181.34;4978568;28;20023;-77
2021/12/16 05:18:45;;;;;;;152.18;50.30;;;;;;;7.15;100.00;103196.00;4959480;28;20058;-78
2021/12/16 05:21:27;;;;;;;156.60;52.28;;;;;;;7.08;100.00;103192.50;4956558;28;20059;-78
2021/12/16 05:26:36;;;;;;;142.52;50.47;;;;;;;7.03;100.00;103201.75;4956973;28;20038;-78
2021/12/16 05:29:02;;;;;;;156.00;53.75;;;;;;;6.96;100.00;103201.00;4974215;28;20058;-78
2021/12/16 05:31:29;;;;;;;143.88;49.35;;;;;;;6.90;100.00;103201.16;4958906;28;20039;-78
2021/12/16 05:33:57;;;;;;;138.05;47.85;;;;;;;6.89;100.00;103197.56;4961565;28;20499;-78
2021/12/16 05:36:23;;;;;;;144.73;48.90;;;;;;;6.88;100.00;103205.75;4958122;28;20039;-78
2021/12/16 05:38:49;;;;;;;181.90;55.00;;;;;;;6.80;100.00;103209.59;4942444;28;20050;-78
2021/12/16 05:41:19;;;;;;;156.73;50.83;;;;;;;6.77;100.00;103209.66;4973195;28;20043;-78
2021/12/16 05:43:45;;;;;;;154.48;48.45;;;;;;;6.68;100.00;103206.28;4973138;28;20042;-78
2021/12/16 05:46:11;;;;;;;134.13;47.05;;;;;;;6.55;100.00;103222.88;4956018;28;20035;-78
2021/12/16 05:48:40;;;;;;;120.47;42.88;;;;;;;6.53;100.00;103223.88;4958239;28;20407;-78
2021/12/16 05:51:14;;;;;;;109.78;43.80;;;;;;;6.46;100.00;103212.25;4957575;28;20103;-78
2021/12/16 05:53:41;;;;;;;121.32;43.40;;;;;;;6.42;100.00;103211.41;4969260;28;20028;-78
2021/12/16 05:56:07;;;;;;;128.00;43.80;;;;;;;6.38;100.00;103225.13;4973451;28;20039;-78
2021/12/16 05:58:33;;;;;;;139.57;46.20;;;;;;;6.29;100.00;103226.22;4958228;28;20043;-78
2021/12/16 06:01:07;;;;;;;118.53;42.63;;;;;;;6.23;100.00;103234.50;4971123;28;20028;-78
2021/12/16 06:03:34;;;;;;;123.10;43.63;;;;;;;6.28;100.00;103235.34;4959353;28;20039;-79
2021/12/16 06:06:00;;;;;;;119.07;44.13;;;;;;;6.23;100.00;103230.00;4958823;28;20039;-78
2021/12/16 06:08:26;;;;;;;122.65;43.15;;;;;;;6.25;100.00;103239.00;4955412;29;20105;-78
2021/12/16 06:11:14;;;;;;;129.88;45.63;;;;;;;6.23;100.00;103242.66;4957000;28;20059;-78
2021/12/16 06:13:56;;;;;;;116.40;42.83;;;;;;;6.21;100.00;103250.88;4941432;29;20437;-78
2021/12/16 06:27:22;;;;;;;153.27;46.67;;;;;;;6.01;100.00;103259.47;4958685;29;20031;-78
2021/12/16 06:29:49;;;;;;;152.60;49.45;;;;;;;6.01;100.00;103264.91;4959708;28;20098;-78
2021/12/16 06:32:15;;;;;;;136.30;47.00;;;;;;;6.02;100.00;103261.25;4975925;28;20053;-78
2021/12/16 06:34:41;;;;;;;162.05;53.85;;;;;;;6.05;100.00;103255.75;4962132;28;20043;-78
2021/12/16 06:37:07;;;;;;;168.85;54.60;;;;;;;6.31;100.00;103261.56;4959350;28;20034;-77
2021/12/16 06:39:32;;;;;;;153.48;52.83;;;;;;;6.20;100.00;103253.66;4954766;28;20128;-78
2021/12/16 06:41:58;;;;;;;156.52;53.00;;;;;;;6.23;100.00;103264.44;4954709;28;20115;-78
2021/12/16 06:44:30;;;;;;;205.38;53.83;;;;;;;6.17;100.00;103261.88;4957234;28;20031;-77
2021/12/16 06:47:03;;;;;;;421.23;58.83;;;;;;;6.12;100.00;103267.41;4953425;28;20045;-77
2021/12/16 06:49:31;;;;;;;137.68;47.03;;;;;;;6.03;100.00;103262.16;4955141;28;20294;-78
2021/12/16 06:52:01;;;;;;;124.72;44.65;;;;;;;5.88;100.00;103264.22;4956262;28;20057;-77
2021/12/16 06:54:36;;;;;;;128.13;44.30;;;;;;;5.92;100.00;103280.47;4956906;28;20024;-77
2021/12/16 06:59:35;;;;;;;77.80;33.28;;;;;;;5.69;100.00;103270.97;4955324;28;20043;-77
2021/12/16 07:04:30;;;;;;;79.63;32.45;;;;;;;5.59;100.00;103278.41;4956430;28;20126;-78
2021/12/16 07:06:56;;;;;;;75.47;31.55;;;;;;;5.57;100.00;103282.97;4968347;28;20579;-77
2021/12/16 07:09:23;;;;;;;109.70;34.13;;;;;;;5.53;100.00;103283.97;4953868;28;20075;-76
2021/12/16 07:11:52;;;;;;;116.68;37.53;;;;;;;5.56;100.00;103275.75;4954862;28;20050;-77
2021/12/16 07:14:22;;;;;;;224.68;42.30;;;;;;;5.65;100.00;103286.44;4954416;28;20031;-77
2021/12/16 07:16:51;;;;;;;299.85;47.15;;;;;;;5.72;100.00;103295.34;4964485;28;20035;-77
2021/12/16 07:19:17;;;;;;;227.70;47.55;;;;;;;5.67;100.00;103295.47;4937547;29;20083;-77
2021/12/16 07:21:43;;;;;;;459.83;56.25;;;;;;;5.68;100.00;103307.22;4954831;28;20050;-77
2021/12/16 07:24:12;;;;;;;361.10;51.17;;;;;;;5.63;100.00;103301.88;4954357;28;20123;-77
2021/12/16 07:26:37;;;;;;;552.67;53.05;;;;;;;5.62;100.00;103316.38;4968836;28;20778;-78
2021/12/16 07:29:04;;;;;;;494.17;56.28;;;;;;;5.63;100.00;103318.19;4951271;28;20047;-77
2021/12/16 07:31:30;;;;;;;412.77;55.88;;;;;;;5.71;100.00;103320.75;4953645;28;20395;-77
2021/12/16 07:33:57;;;;;;;419.20;58.55;;;;;;;5.75;100.00;103325.19;4957792;28;20050;-77
2021/12/16 07:36:23;;;;;;;616.63;56.35;;;;;;;5.65;100.00;103324.47;4952812;28;20024;-76
2021/12/16 07:38:50;;;;;;;313.50;48.45;;;;;;;5.67;100.00;103333.53;4952841;28;20043;-77
2021/12/16 07:41:20;;;;;;;361.10;44.50;;;;;;;5.48;100.00;103343.81;4954357;28;20058;-77
2021/12/16 07:46:21;;;;;;;415.70;41.00;;;;;;;5.12;100.00;103348.03;4953610;28;20118;-77
2021/12/16 07:48:47;;;;;;;240.13;34.00;;;;;;;5.01;100.00;103352.75;4952640;28;20043;-77
2021/12/16 07:51:13;;;;;;;363.23;38.25;;;;;;;5.03;100.00;103361.75;4953069;28;20049;-77
2021/12/16 07:53:40;;;;;;;356.48;42.65;;;;;;;5.17;100.00;103347.97;4952730;29;20028;-77
2021/12/16 07:56:06;;;;;;;315.95;38.78;;;;;;;5.23;100.00;103356.94;4952240;28;20103;-77
2021/12/16 07:58:32;;;;;;;306.52;38.55;;;;;;;5.17;100.00;103364.28;4953929;28;20055;-77
2021/12/16 08:00:58;;;;;;;341.25;39.83;;;;;;;5.24;100.00;103376.81;4954402;29;20093;-77
2021/12/16 08:03:26;;;;;;;342.88;47.17;;;;;;;5.14;100.00;103366.09;4953594;29;20395;-77
2021/12/16 08:05:58;;;;;;;462.08;48.53;;;;;;;5.17;100.00;103365.16;4952719;29;20054;-77
2021/12/16 08:08:24;;;;;;;382.00;45.75;;;;;;;5.30;100.00;103368.59;4952503;28;20090;-77
2021/12/16 08:10:51;;;;;;;347.48;48.15;;;;;;;5.40;100.00;103372.03;4953453;28;20134;-77
2021/12/16 08:13:17;;;;;;;480.05;55.13;;;;;;;5.43;100.00;103383.75;4954086;28;20039;-77
2021/12/16 08:15:43;;;;;;;192.35;41.08;;;;;;;5.50;100.00;103390.88;4954187;28;20519;-77
2021/12/16 08:18:09;;;;;;;260.40;44.03;;;;;;;5.63;100.00;103398.81;4954463;28;20039;-77
2021/12/16 08:20:35;;;;;;;333.75;45.97;;;;;;;5.46;100.00;103394.56;4940119;29;20037;-76
2021/12/16 08:23:00;;;;;;;418.27;47.22;;;;;;;5.41;100.00;103392.84;4953412;28;20390;-78
2021/12/16 08:25:28;;;;;;;318.67;43.67;;;;;;;5.43;100.00;103405.50;4952988;29;20533;-77
2021/12/16 08:27:55;;;;;;;351.77;44.53;;;;;;;5.48;100.00;103405.41;4965372;28;20039;-77
2021/12/16 08:30:27;;;;;;;315.95;49.80;;;;;;;5.66;100.00;103404.22;4951809;28;20072;-76
2021/12/16 08:32:53;;;;;;;303.73;53.20;;;;;;;5.73;100.00;103405.00;4950921;28;20046;-77
2021/12/16 08:35:19;;;;;;;178.10;38.40;;;;;;;5.76;100.00;103413.09;4952106;28;20031;-76
2021/12/16 08:37:45;;;;;;;144.43;37.45;;;;;;;5.74;100.00;103404.06;4952584;28;20043;-77
2021/12/16 08:40:15;;;;;;;321.35;44.30;;;;;;;5.48;100.00;103409.03;4963558;28;20042;-76
2021/12/16 08:42:41;;;;;;;273.10;42.92;;;;;;;5.58;100.00;103415.19;4950368;29;20106;-76
2021/12/16 08:45:10;;;;;;;239.18;42.42;;;;;;;5.58;100.00;103423.34;4951514;29;20043;-77
2021/12/16 08:47:36;;;;;;;176.15;42.72;;;;;;;5.69;100.00;103424.06;4951109;28;20074;-78
2021/12/16 08:50:06;;;;;;;235.00;47.17;;;;;;;5.85;100.00;103427.44;4952448;29;20027;-76
2021/12/16 08:52:32;;;;;;;346.95;53.30;;;;;;;5.79;100.00;103427.53;4967131;28;20035;-78
2021/12/16 08:54:59;;;;;;;327.60;56.88;;;;;;;5.93;100.00;103427.28;4957323;28;20035;-77
2021/12/16 08:57:25;;;;;;;339.67;60.17;;;;;;;6.01;100.00;103424.47;4968463;28;20094;-77
2021/12/16 08:59:51;;;;;;;279.90;58.33;;;;;;;6.09;100.00;103438.81;4968607;28;20035;-77
2021/12/16 09:02:19;;;;;;;367.80;59.65;;;;;;;6.04;100.00;103438.00;4952528;29;20031;-76
2021/12/16 09:04:45;;;;;;;325.40;56.42;;;;;;;6.06;100.00;103431.59;4957513;28;20381;-77
2021/12/16 09:07:11;;;;;;;278.35;56.05;;;;;;;6.10;100.00;103437.91;4952931;28;20047;-77
2021/12/16 09:09:38;;;;;;;242.10;53.13;;;;;;;6.19;100.00;103444.97;4951466;28;20043;-77
2021/12/16 09:12:25;;;;;;;241.00;57.60;;;;;;;6.18;100.00;103440.47;4934784;28;20089;-77
2021/12/16 09:14:50;;;;;;;252.43;54.63;;;;;;;6.22;100.00;103444.94;4953256;28;20031;-77
2021/12/16 09:17:16;;;;;;;241.90;54.25;;;;;;;6.23;100.00;103449.41;4967629;28;20035;-77
2021/12/16 09:19:45;;;;;;;214.73;52.97;;;;;;;6.31;100.00;103454.72;4947114;28;20031;-76
2021/12/16 09:22:15;;;;;;;210.68;52.75;;;;;;;6.32;100.00;103453.81;4950244;29;20395;-77
2021/12/16 09:24:40;;;;;;;236.48;56.97;;;;;;;6.39;100.00;103461.81;4952922;28;20475;-77
2021/12/16 09:27:06;;;;;;;171.13;52.30;;;;;;;6.48;100.00;103463.47;4949553;29;20040;-77
2021/12/16 09:29:32;;;;;;;223.13;56.40;;;;;;;6.51;100.00;103452.53;4952047;28;20042;-77
2021/12/16 09:31:58;;;;;;;151.07;50.72;;;;;;;6.60;100.00;103459.59;4953611;28;20039;-77
2021/12/16 09:34:24;;;;;;;205.50;53.53;;;;;;;6.65;100.00;103454.94;4952459;28;20396;-77
2021/12/16 09:36:49;;;;;;;167.32;51.83;;;;;;;6.72;100.00;103466.63;4952014;29;20164;-77
2021/12/16 09:39:17;;;;;;;172.73;51.13;;;;;;;6.70;100.00;103457.59;4968597;28;20051;-78
2021/12/16 09:41:47;;;;;;;181.63;52.08;;;;;;;6.81;100.00;103459.16;4968063;28;20102;-77
2021/12/16 09:44:14;;;;;;;181.18;49.45;;;;;;;6.80;100.00;103454.66;4965079;28;20031;-76
2021/12/16 09:46:43;;;;;;;148.02;49.47;;;;;;;7.01;100.00;103460.53;4951283;28;20051;-77
2021/12/16 09:49:09;;;;;;;167.63;52.45;;;;;;;7.13;100.00;103465.75;4937785;29;20058;-77
2021/12/16 09:51:36;;;;;;;150.70;50.97;;;;;;;7.19;100.00;103464.69;4956150;29;20046;-77
2021/12/16 09:54:07;;;;;;;127.13;47.50;;;;;;;7.17;100.00;103452.94;4956904;28;20031;-78
2021/12/16 09:56:35;;;;;;;119.85;45.20;;;;;;;7.32;100.00;103454.41;4955126;28;20447;-77
2021/12/16 09:59:03;;;;;;;127.10;46.10;;;;;;;7.37;100.00;103457.91;4970356;28;20139;-77
2021/12/16 10:01:29;;;;;;;124.90;46.83;;;;;;;7.38;100.00;103450.63;4954507;28;20355;-76
2021/12/16 10:04:01;;;;;;;115.20;46.97;;;;;;;7.39;100.00;103449.72;4954860;28;20043;-76
2021/12/16 10:06:28;;;;;;;125.03;45.28;;;;;;;7.43;100.00;103448.69;4955965;28;20050;-78
2021/12/16 10:08:54;;;;;;;108.90;46.08;;;;;;;7.49;100.00;103452.19;4946107;29;20035;-78
2021/12/16 10:11:19;;;;;;;125.20;48.00;;;;;;;7.72;100.00;103445.25;4955037;28;20047;-77
2021/12/16 10:19:06;;;;;;;112.82;48.95;;;;;;;7.83;100.00;103448.59;4950202;29;20109;-78
2021/12/16 10:21:32;;;;;;;103.05;45.72;;;;;;;7.88;100.00;103449.38;4954795;29;20059;-77
2021/12/16 10:23:58;;;;;;;102.05;45.60;;;;;;;7.87;100.00;103442.16;4948740;29;20394;-77
2021/12/16 10:26:25;;;;;;;100.80;45.17;;;;;;;7.92;100.00;103436.56;4955842;29;20046;-77
2021/12/16 10:28:57;;;;;;;105.72;44.47;;;;;;;7.98;100.00;103440.97;4955941;28;20094;-77
2021/12/16 10:31:34;;;;;;;101.88;44.65;;;;;;;7.98;100.00;103432.78;4959317;28;20054;-77
2021/12/16 10:34:09;;;;;;;103.78;44.05;;;;;;;8.27;100.00;103441.06;4971468;28;20464;-77
2021/12/16 10:36:40;;;;;;;99.20;44.72;;;;;;;8.49;100.00;103447.78;4955288;28;20486;-81
2021/12/16 10:39:22;;;;;;;86.85;41.38;;;;;;;8.65;100.00;103447.28;4960456;28;20044;-77
2021/12/16 10:42:00;;;;;;;72.57;37.77;;;;;;;8.81;100.00;103438.66;4968427;28;20062;-77
2021/12/16 10:44:33;;;;;;;72.63;36.30;;;;;;;8.97;100.00;103437.25;4953303;28;20050;-77
2021/12/16 10:47:04;;;;;;;74.82;36.13;;;;;;;9.04;100.00;103443.44;4955415;28;20122;-76
2021/12/16 10:49:31;;;;;;;71.57;35.40;;;;;;;9.17;100.00;103457.63;4954291;28;20032;-76
2021/12/16 10:52:00;;;;;;;70.60;34.65;;;;;;;9.30;100.00;103453.53;4949032;28;20051;-78
2021/12/16 10:54:34;;;;;;;67.13;34.85;;;;;;;9.36;100.00;103444.22;4954108;28;20087;-77
2021/12/16 10:57:09;;;;;;;71.70;35.40;;;;;;;9.42;100.00;103454.09;4937024;29;20070;-77
2021/12/16 10:59:53;;;;;;;73.95;36.50;;;;;;;9.59;100.00;103459.88;4965641;28;20031;-77
2021/12/16 11:02:28;;;;;;;68.93;33.10;;;;;;;9.69;100.00;103460.47;4954455;28;20046;-77
2021/12/16 11:05:00;;;;;;;57.38;31.88;;;;;;;9.93;100.00;103465.13;4953702;28;20074;-76
2021/12/16 11:07:42;;;;;;;60.03;31.73;;;;;;;9.93;100.00;103466.97;4969043;28;20506;-78
2021/12/16 11:10:20;;;;;;;64.93;32.08;;;;;;;9.73;100.00;103468.53;4954205;29;20086;-77
2021/12/16 11:12:50;;;;;;;70.90;35.42;;;;;;;9.62;100.00;103467.13;4949340;29;20043;-77
2021/12/16 11:15:24;;;;;;;70.13;32.50;;;;;;;9.64;100.00;103482.53;4967744;28;20114;-77
2021/12/16 11:17:49;;;;;;;65.65;33.13;;;;;;;9.76;100.00;103473.03;4955047;28;20047;-76
2021/12/16 11:20:33;;;;;;;69.82;34.97;;;;;;;9.70;100.00;103481.44;4952367;28;20107;-77
2021/12/16 11:23:03;;;;;;;64.30;35.30;;;;;;;9.72;100.00;103476.78;4954255;28;20043;-76
2021/12/16 11:25:53;;;;;;;75.32;35.50;;;;;;;9.86;100.00;103485.44;4970035;28;20058;-77
2021/12/16 11:28:24;;;;;;;75.60;36.67;;;;;;;9.94;100.00;103476.97;4961180;28;20321;-76
2021/12/16 11:30:58;;;;;;;72.85;36.10;;;;;;;10.03;100.00;103479.38;4934711;28;20035;-77
2021/12/16 11:33:29;;;;;;;73.07;36.45;;;;;;;10.07;100.00;103481.09;4951943;29;20054;-78
2021/12/16 11:36:06;;;;;;;67.63;34.60;;;;;;;9.92;100.00;103473.41;4953546;28;20031;-78
2021/12/16 11:38:37;;;;;;;74.32;34.70;;;;;;;9.91;100.00;103471.63;4953975;28;20416;-79
2021/12/16 11:41:02;;;;;;;59.55;31.40;;;;;;;10.03;100.00;103473.03;4954339;29;20035;-78
2021/12/16 11:43:53;;;;;;;70.72;34.00;;;;;;;10.00;100.00;103468.56;4938575;29;20042;-78
2021/12/16 11:46:30;;;;;;;63.70;31.08;;;;;;;9.94;100.00;103466.91;4952303;28;20047;-77
2021/12/16 11:49:01;;;;;;;73.38;34.47;;;;;;;9.98;100.00;103459.50;4952247;29;20035;-78
2021/12/16 11:51:45;;;;;;;67.38;33.40;;;;;;;9.92;100.00;103457.00;4952859;29;20043;-77
2021/12/16 11:54:26;;;;;;;60.97;32.55;;;;;;;9.93;100.00;103451.44;4953767;29;20027;-78
2021/12/16 11:56:55;;;;;;;64.18;30.40;;;;;;;9.92;100.00;103446.94;4954837;28;20039;-77
2021/12/16 11:59:43;;;;;;;64.97;33.45;;;;;;;9.89;100.00;103448.88;4938623;29;20102;-78
2021/12/16 12:02:27;;;;;;;68.40;31.65;;;;;;;10.00;100.00;103451.22;4962848;28;20135;-77
2021/12/16 12:05:11;;;;;;;67.35;33.42;;;;;;;9.98;100.00;103459.50;4959787;29;20027;-78
2021/12/16 12:07:42;;;;;;;62.22;33.58;;;;;;;9.88;100.00;103455.28;4958802;29;20031;-78
2021/12/16 12:10:08;;;;;;;59.58;33.45;;;;;;;9.84;100.00;103443.56;4956969;28;20047;-78
2021/12/16 12:12:43;;;;;;;65.97;33.58;;;;;;;9.83;100.00;103441.75;4956005;28;20031;-78
2021/12/16 12:15:11;;;;;;;57.58;29.88;;;;;;;9.83;100.00;103439.03;4973440;28;20039;-78
2021/12/16 12:17:52;;;;;;;55.85;29.05;;;;;;;9.88;100.00;103444.34;4938528;29;20075;-77
2021/12/16 12:20:44;;;;;;;55.35;29.85;;;;;;;9.95;100.00;103443.19;4951425;28;20050;-78
2021/12/16 12:23:09;;;;;;;62.80;27.00;;;;;;;9.87;100.00;103445.28;4952199;29;20101;-77
2021/12/16 12:25:35;;;;;;;51.03;26.13;;;;;;;9.84;100.00;103440.84;4950732;29;20082;-77
2021/12/16 12:28:00;;;;;;;53.20;26.83;;;;;;;9.85;100.00;103445.34;4954256;28;20118;-77
2021/12/16 12:30:26;;;;;;;52.03;26.23;;;;;;;9.92;100.00;103441.47;4954896;29;20468;-77
2021/12/16 12:32:52;;;;;;;45.90;24.98;;;;;;;9.86;100.00;103441.66;4953285;28;20434;-77
2021/12/16 12:35:28;;;;;;;56.47;26.55;;;;;;;9.88;100.00;103445.22;4952175;29;20090;-77
2021/12/16 12:38:00;;;;;;;53.83;26.83;;;;;;;9.81;100.00;103440.94;4953652;29;20035;-77
2021/12/16 12:40:27;;;;;;;52.42;25.15;;;;;;;9.87;100.00;103453.50;4952486;28;20036;-76
2021/12/16 12:42:55;;;;;;;52.25;26.10;;;;;;;9.86;100.00;103444.41;4950899;28;20032;-77
2021/12/16 12:45:26;;;;;;;53.08;24.50;;;;;;;9.92;100.00;103454.25;4955658;28;20042;-77
2021/12/16 12:47:55;;;;;;;51.80;26.08;;;;;;;9.94;100.00;103449.63;4955830;29;20628;-77
2021/12/16 12:50:25;;;;;;;49.33;24.48;;;;;;;9.99;100.00;103447.63;4968700;28;20035;-77
2021/12/16 12:52:53;;;;;;;53.78;25.40;;;;;;;9.94;100.00;103442.28;4953478;29;20141;-77
2021/12/16 12:55:28;;;;;;;45.35;23.90;;;;;;;9.91;100.00;103450.59;4953767;28;20035;-77
2021/12/16 12:58:05;;;;;;;52.30;23.98;;;;;;;9.97;100.00;103446.78;4950232;28;20031;-77
2021/12/16 13:00:35;;;;;;;49.75;21.90;;;;;;;9.99;100.00;103450.34;4952964;29;20035;-77
2021/12/16 13:03:07;;;;;;;45.72;21.35;;;;;;;10.01;100.00;103448.44;4953989;28;20131;-77
2021/12/16 13:05:34;;;;;;;38.63;19.45;;;;;;;10.00;100.00;103449.41;4953354;29;20050;-77
2021/12/16 13:08:04;;;;;;;44.50;20.30;;;;;;;9.95;100.00;103440.44;4968300;28;20039;-77
2021/12/16 13:10:45;;;;;;;38.50;20.85;;;;;;;10.01;100.00;103448.44;4968864;28;20055;-77
2021/12/16 13:15:56;;;;;;;41.65;18.02;;;;;;;10.05;100.00;103444.66;4955042;28;20051;-77
2021/12/16 13:27:08;;;;;;;35.78;16.60;;;;;;;9.92;100.00;103443.31;4972876;28;20035;-77
2021/12/16 13:29:53;;;;;;;32.25;17.35;;;;;;;10.02;100.00;103444.78;4956811;28;20027;-77
2021/12/16 13:32:38;;;;;;;34.47;16.80;;;;;;;10.01;100.00;103442.97;4957965;29;20039;-78
2021/12/16 13:35:22;;;;;;;35.45;16.08;;;;;;;9.96;100.00;103450.44;4965550;28;20789;-78
2021/12/16 13:37:51;;;;;;;;;;;;;;;10.03;100.00;103446.53;4939598;29;20047;-78
2021/12/16 13:40:28;;;;;;;27.27;15.20;;;;;;;9.98;100.00;103447.66;4957563;29;19956;-77
2021/12/16 13:43:25;;;;;;;37.85;16.30;;;;;;;10.01;100.00;103448.44;4955975;28;20496;-77
2021/12/16 13:46:29;;;;;;;32.83;16.17;;;;;;;9.91;100.00;103444.25;4956776;28;20070;-78
2021/12/16 14:03:19;;;;;;;34.42;15.95;;;;;;;9.97;100.00;103457.72;4952401;29;20032;-78
2021/12/16 14:06:11;;;;;;;30.15;13.82;;;;;;;10.12;100.00;103457.19;4952706;29;20043;-77
2021/12/16 14:08:44;;;;;;;24.52;13.77;;;;;;;10.12;100.00;103454.44;4955036;28;20039;-78
2021/12/16 14:17:15;;;;;;;28.90;13.25;;;;;;;10.12;100.00;103462.66;4992464;28;20532;-77